createdAt,value
2018-08-28T00:01:54.703Z,21.00
2018-08-28T00:04:22.875Z,21.00
2018-08-28T00:06:51.054Z,21.00
2018-08-28T00:09:19.231Z,21.00
2018-08-28T00:11:47.412Z,21.00
2018-08-28T00:14:15.588Z,20.90
2018-08-28T00:16:43.770Z,20.80
2018-08-28T00:19:11.947Z,20.80
2018-08-28T00:21:40.145Z,20.70
2018-08-28T00:24:08.365Z,20.70
2018-08-28T00:26:36.559Z,20.70
2018-08-28T00:29:04.748Z,20.70
2018-08-28T00:31:32.972Z,20.60
2018-08-28T00:34:01.163Z,20.60
2018-08-28T00:36:29.330Z,20.50
2018-08-28T00:38:57.523Z,20.50
2018-08-28T00:41:25.691Z,20.50
2018-08-28T00:43:53.862Z,20.40
2018-08-28T00:46:22.051Z,20.40
2018-08-28T00:48:50.227Z,20.30
2018-08-28T00:51:18.394Z,20.30
2018-08-28T00:53:46.571Z,20.30
2018-08-28T00:56:14.739Z,20.20
2018-08-28T00:58:43.869Z,20.10
2018-08-28T01:01:12.077Z,20.10
2018-08-28T01:03:40.272Z,20.00
2018-08-28T01:06:08.443Z,20.00
2018-08-28T01:08:36.611Z,19.90
2018-08-28T01:11:05.003Z,19.90
2018-08-28T01:13:33.186Z,19.90
2018-08-28T01:16:01.369Z,19.80
2018-08-28T01:18:29.554Z,19.80
2018-08-28T01:20:57.722Z,19.80
2018-08-28T01:23:25.899Z,19.80
2018-08-28T01:25:54.071Z,19.70
2018-08-28T01:28:22.255Z,19.80
2018-08-28T01:30:50.421Z,19.70
2018-08-28T01:33:18.608Z,19.70
2018-08-28T01:35:46.782Z,19.80
2018-08-28T01:38:15.124Z,19.80
2018-08-28T01:40:43.332Z,19.80
2018-08-28T01:43:17.254Z,19.80
2018-08-28T01:45:45.427Z,19.70
2018-08-28T01:48:13.894Z,19.70
2018-08-28T01:50:42.370Z,19.60
2018-08-28T01:53:10.548Z,19.60
2018-08-28T01:55:38.714Z,19.60
2018-08-28T01:58:06.894Z,19.60
2018-08-28T02:00:35.107Z,19.50
2018-08-28T02:03:03.299Z,19.60
2018-08-28T02:05:31.487Z,19.50
2018-08-28T02:07:59.666Z,19.40
2018-08-28T02:10:27.837Z,19.30
2018-08-28T02:12:56.299Z,19.30
2018-08-28T02:15:24.496Z,19.20
2018-08-28T02:17:52.692Z,19.10
2018-08-28T02:20:20.871Z,19.00
2018-08-28T02:22:49.049Z,19.00
2018-08-28T02:25:17.219Z,18.90
2018-08-28T02:27:45.396Z,18.80
2018-08-28T02:30:13.583Z,18.80
2018-08-28T02:32:41.750Z,18.80
2018-08-28T02:35:09.924Z,18.70
2018-08-28T02:37:38.091Z,18.70
2018-08-28T02:40:06.371Z,18.60
2018-08-28T02:42:34.539Z,18.60
2018-08-28T02:45:02.722Z,18.60
2018-08-28T02:47:30.883Z,18.50
2018-08-28T02:49:59.080Z,18.40
2018-08-28T02:52:27.291Z,18.30
2018-08-28T02:54:55.488Z,18.30
2018-08-28T02:57:23.676Z,18.20
2018-08-28T02:59:51.946Z,18.20
2018-08-28T03:02:20.114Z,18.20
2018-08-28T03:04:48.303Z,18.20
2018-08-28T03:07:16.766Z,18.20
2018-08-28T03:09:45.238Z,18.10
2018-08-28T03:12:13.710Z,18.10
2018-08-28T03:14:41.891Z,18.00
2018-08-28T03:17:10.062Z,18.00
2018-08-28T03:19:38.414Z,17.90
2018-08-28T03:22:06.615Z,17.90
2018-08-28T03:24:34.798Z,17.90
2018-08-28T03:27:02.971Z,17.90
2018-08-28T03:29:31.171Z,17.80
2018-08-28T03:31:59.386Z,17.80
2018-08-28T03:34:27.580Z,17.80
2018-08-28T03:36:55.775Z,17.80
2018-08-28T03:39:24.230Z,17.80
2018-08-28T03:41:52.399Z,17.70
2018-08-28T03:44:20.590Z,17.70
2018-08-28T03:46:48.790Z,17.70
2018-08-28T03:49:16.975Z,17.70
2018-08-28T03:51:45.151Z,17.70
2018-08-28T03:54:13.350Z,17.60
2018-08-28T03:56:41.527Z,17.60
2018-08-28T03:59:09.703Z,17.60
2018-08-28T04:01:37.870Z,17.50
2018-08-28T04:04:06.055Z,17.50
2018-08-28T04:06:34.243Z,17.40
2018-08-28T04:09:02.476Z,17.40
2018-08-28T04:11:30.663Z,17.30
2018-08-28T04:13:58.876Z,17.30
2018-08-28T04:16:27.042Z,17.20
2018-08-28T04:18:55.221Z,17.20
2018-08-28T04:21:23.398Z,17.20
2018-08-28T04:23:51.580Z,17.20
2018-08-28T04:26:19.754Z,17.20
2018-08-28T04:28:47.930Z,17.20
2018-08-28T04:31:16.167Z,17.20
2018-08-28T04:33:44.655Z,17.20
2018-08-28T04:36:12.830Z,17.20
2018-08-28T04:38:41.003Z,17.20
2018-08-28T04:41:09.203Z,17.10
2018-08-28T04:43:37.630Z,17.10
2018-08-28T04:46:05.852Z,17.10
2018-08-28T04:48:34.069Z,17.10
2018-08-28T04:51:02.244Z,17.10
2018-08-28T04:53:30.419Z,17.10
2018-08-28T04:55:58.600Z,17.10
2018-08-28T04:58:26.780Z,17.20
2018-08-28T05:00:54.952Z,17.20
2018-08-28T05:03:23.122Z,17.20
2018-08-28T05:05:51.308Z,17.20
2018-08-28T05:08:19.790Z,17.20
2018-08-28T05:10:47.971Z,17.30
2018-08-28T05:13:16.142Z,17.30
2018-08-28T05:15:44.334Z,17.50
2018-08-28T05:18:12.790Z,17.50
2018-08-28T05:20:41.034Z,17.60
2018-08-28T05:23:09.203Z,17.60
2018-08-28T05:25:37.395Z,17.70
2018-08-28T05:28:05.596Z,17.80
2018-08-28T05:30:33.917Z,17.80
2018-08-28T05:33:02.173Z,17.90
2018-08-28T05:35:30.368Z,17.90
2018-08-28T05:37:58.573Z,18.00
2018-08-28T05:40:26.719Z,18.00
2018-08-28T05:42:55.131Z,18.20
2018-08-28T05:45:23.306Z,18.20
2018-08-28T05:47:51.479Z,18.30
2018-08-28T05:50:19.662Z,18.40
2018-08-28T05:52:47.835Z,18.40
2018-08-28T05:55:16.011Z,18.50
2018-08-28T05:57:44.183Z,18.50
2018-08-28T06:00:12.364Z,18.60
2018-08-28T06:02:40.539Z,18.60
2018-08-28T06:05:09.155Z,18.60
2018-08-28T06:07:37.435Z,18.60
2018-08-28T06:10:06.495Z,18.50
2018-08-28T06:12:34.700Z,18.60
2018-08-28T06:15:03.079Z,18.70
2018-08-28T06:17:31.603Z,18.80
2018-08-28T06:19:59.766Z,18.90
2018-08-28T06:22:28.210Z,18.80
2018-08-28T06:24:56.379Z,18.90
2018-08-28T06:27:24.556Z,19.00
2018-08-28T06:29:52.974Z,19.00
2018-08-28T06:32:21.154Z,19.10
2018-08-28T06:34:49.326Z,19.20
2018-08-28T06:37:17.513Z,19.20
2018-08-28T06:39:45.670Z,19.20
2018-08-28T06:42:13.850Z,19.30
2018-08-28T06:44:42.019Z,19.40
2018-08-28T06:47:10.207Z,19.50
2018-08-28T06:49:38.647Z,19.60
2018-08-28T06:52:06.770Z,19.70
2018-08-28T06:54:34.981Z,19.80
2018-08-28T06:57:03.459Z,19.90
2018-08-28T06:59:31.647Z,19.90
2018-08-28T07:01:59.823Z,20.00
2018-08-28T07:04:27.990Z,20.00
2018-08-28T07:06:56.170Z,20.10
2018-08-28T07:09:24.338Z,20.10
2018-08-28T07:11:52.527Z,20.20
2018-08-28T07:14:20.931Z,20.40
2018-08-28T07:16:49.103Z,20.30
2018-08-28T07:19:17.271Z,20.50
2018-08-28T07:21:45.453Z,20.60
2018-08-28T07:24:13.635Z,20.80
2018-08-28T07:26:42.039Z,20.90
2018-08-28T07:29:10.218Z,21.00
2018-08-28T07:31:38.434Z,21.10
2018-08-28T07:34:06.651Z,21.20
2018-08-28T07:36:34.830Z,21.20
2018-08-28T07:39:03.450Z,21.20
2018-08-28T07:41:31.659Z,21.20
2018-08-28T07:43:59.852Z,21.40
2018-08-28T07:46:28.023Z,21.50
2018-08-28T07:48:56.202Z,21.60
2018-08-28T07:51:24.438Z,21.70
2018-08-28T07:53:52.623Z,21.80
2018-08-28T07:56:20.775Z,21.80
2018-08-28T07:58:48.978Z,22.00
2018-08-28T08:01:17.220Z,22.10
2018-08-28T08:03:46.474Z,22.10
2018-08-28T08:06:14.653Z,22.10
2018-08-28T08:08:42.828Z,22.10
2018-08-28T08:11:11.011Z,22.10
2018-08-28T08:13:39.195Z,22.00
2018-08-28T08:16:07.424Z,22.20
2018-08-28T08:18:36.156Z,22.10
2018-08-28T08:21:04.328Z,22.20
2018-08-28T08:23:32.519Z,22.40
2018-08-28T08:26:00.728Z,22.50
2018-08-28T08:28:28.949Z,22.40
2018-08-28T08:30:57.391Z,22.30
2018-08-28T08:33:25.570Z,22.40
2018-08-28T08:35:53.747Z,22.50
2018-08-28T08:38:21.926Z,22.60
2018-08-28T08:40:50.090Z,22.70
2018-08-28T08:43:18.591Z,22.80
2018-08-28T08:45:46.764Z,22.80
2018-08-28T08:48:14.955Z,22.80
2018-08-28T08:50:43.160Z,22.90
2018-08-28T08:53:11.339Z,23.00
2018-08-28T08:55:39.518Z,23.20
2018-08-28T08:58:08.015Z,23.30
2018-08-28T09:00:36.181Z,23.30
2018-08-28T09:03:04.534Z,23.40
2018-08-28T09:05:32.704Z,23.50
2018-08-28T09:08:00.912Z,23.30
2018-08-28T09:10:29.129Z,23.40
2018-08-28T09:12:57.336Z,23.50
2018-08-28T09:15:25.550Z,23.30
2018-08-28T09:17:53.774Z,23.30
2018-08-28T09:20:21.951Z,23.30
2018-08-28T09:22:50.143Z,23.20
2018-08-28T09:25:18.318Z,23.10
2018-08-28T09:27:46.499Z,23.10
2018-08-28T09:30:14.666Z,23.00
2018-08-28T09:32:42.843Z,22.70
2018-08-28T09:35:11.031Z,22.80
2018-08-28T09:37:39.223Z,23.10
2018-08-28T09:40:07.664Z,23.30
2018-08-28T09:42:35.842Z,23.40
2018-08-28T09:45:04.027Z,23.70
2018-08-28T09:47:32.206Z,23.80
2018-08-28T09:50:00.453Z,23.90
2018-08-28T09:52:28.627Z,24.10
2018-08-28T09:54:56.817Z,24.30
2018-08-28T09:57:24.988Z,24.40
2018-08-28T09:59:53.164Z,24.40
2018-08-28T10:02:21.331Z,24.40
2018-08-28T10:04:49.554Z,24.30
2018-08-28T10:07:17.679Z,24.30
2018-08-28T10:09:45.858Z,24.20
2018-08-28T10:12:14.031Z,24.30
2018-08-28T10:14:42.219Z,24.50
2018-08-28T10:17:10.739Z,24.60
2018-08-28T10:19:38.891Z,24.60
2018-08-28T10:22:07.070Z,24.60
2018-08-28T10:24:35.257Z,24.60
2018-08-28T10:27:03.456Z,24.60
2018-08-28T10:29:31.680Z,24.80
2018-08-28T10:31:59.872Z,25.10
2018-08-28T10:34:28.067Z,25.30
2018-08-28T10:36:55.546Z,25.40
2018-08-28T10:39:23.726Z,25.60
2018-08-28T10:41:51.902Z,25.90
2018-08-28T10:44:20.088Z,25.90
2018-08-28T10:46:48.012Z,25.90
2018-08-28T10:49:15.339Z,26.00
2018-08-28T10:51:42.838Z,25.80
2018-08-28T10:54:10.325Z,25.70
2018-08-28T10:56:37.807Z,25.90
2018-08-28T10:59:05.563Z,25.90
2018-08-28T11:01:33.050Z,26.20
2018-08-28T11:04:01.260Z,26.40
2018-08-28T11:06:29.403Z,26.70
2018-08-28T11:08:57.582Z,26.70
2018-08-28T11:11:25.791Z,26.70
2018-08-28T11:13:54.012Z,26.60
2018-08-28T11:16:22.203Z,26.70
2018-08-28T11:18:50.394Z,26.90
2018-08-28T11:21:18.567Z,27.10
2018-08-28T11:23:46.756Z,27.30
2018-08-28T11:26:15.163Z,27.40
2018-08-28T11:28:43.339Z,27.60
2018-08-28T11:31:11.533Z,27.80
2018-08-28T11:33:39.683Z,27.90
2018-08-28T11:36:07.863Z,27.90
2018-08-28T11:38:36.043Z,28.00
2018-08-28T11:41:04.267Z,28.10
2018-08-28T11:43:32.438Z,28.20
2018-08-28T11:46:00.615Z,28.30
2018-08-28T11:48:28.787Z,28.40
2018-08-28T11:50:57.303Z,28.20
2018-08-28T11:53:25.491Z,28.20
2018-08-28T11:55:53.719Z,28.10
2018-08-28T11:58:21.937Z,28.10
2018-08-28T12:00:50.165Z,27.90
2018-08-28T12:03:18.400Z,27.40
2018-08-28T12:05:46.587Z,27.50
2018-08-28T12:08:14.763Z,27.90
2018-08-28T12:10:43.266Z,28.20
2018-08-28T12:13:11.494Z,28.20
2018-08-28T12:15:39.650Z,28.10
2018-08-28T12:18:07.830Z,28.30
2018-08-28T12:20:36.032Z,28.50
2018-08-28T12:23:05.102Z,28.70
2018-08-28T12:25:33.288Z,28.90
2018-08-28T12:28:01.462Z,29.10
2018-08-28T12:30:29.666Z,29.10
2018-08-28T12:32:57.858Z,29.10
2018-08-28T12:35:26.043Z,29.20
2018-08-28T12:37:54.218Z,29.40
2018-08-28T12:40:22.403Z,29.60
2018-08-28T12:42:50.579Z,29.50
2018-08-28T12:45:18.767Z,29.50
2018-08-28T12:47:46.946Z,29.60
2018-08-28T12:50:15.138Z,29.70
2018-08-28T12:52:43.357Z,29.90
2018-08-28T12:55:11.593Z,30.10
2018-08-28T12:57:39.833Z,30.30
2018-08-28T13:00:08.231Z,30.30
2018-08-28T13:02:36.413Z,30.20
2018-08-28T13:05:04.906Z,30.20
2018-08-28T13:07:33.125Z,30.30
2018-08-28T13:10:01.258Z,30.40
2018-08-28T13:12:29.453Z,30.60
2018-08-28T13:14:57.607Z,30.40
2018-08-28T13:17:25.819Z,30.30
2018-08-28T13:19:54.007Z,30.30
2018-08-28T13:22:22.191Z,30.10
2018-08-28T13:24:50.367Z,30.10
2018-08-28T13:27:18.559Z,29.90
2018-08-28T13:29:47.074Z,29.70
2018-08-28T13:32:15.254Z,30.00
2018-08-28T13:34:43.431Z,30.20
2018-08-28T13:37:12.275Z,30.40
2018-08-28T13:39:40.450Z,30.30
2018-08-28T13:42:08.637Z,30.40
2018-08-28T13:44:36.821Z,30.50
2018-08-28T13:47:05.462Z,30.60
2018-08-28T13:49:33.561Z,30.60
2018-08-28T13:52:01.750Z,30.70
2018-08-28T13:54:30.071Z,30.80
2018-08-28T13:56:58.123Z,30.70
2018-08-28T13:59:26.314Z,30.60
2018-08-28T14:01:54.535Z,30.60
2018-08-28T14:04:22.719Z,30.70
2018-08-28T14:06:50.911Z,30.80
2018-08-28T14:09:19.079Z,30.70
2018-08-28T14:11:47.258Z,30.80
2018-08-28T14:14:15.430Z,30.70
2018-08-28T14:16:43.666Z,30.40
2018-08-28T14:19:11.871Z,30.10
2018-08-28T14:21:40.091Z,29.70
2018-08-28T14:24:08.271Z,29.70
2018-08-28T14:26:36.454Z,29.90
2018-08-28T14:29:04.785Z,30.00
2018-08-28T14:31:32.854Z,30.10
2018-08-28T14:34:01.350Z,30.00
2018-08-28T14:36:29.563Z,30.10
2018-08-28T14:38:57.781Z,30.00
2018-08-28T14:41:25.968Z,29.90
2018-08-28T14:43:54.147Z,29.70
2018-08-28T14:46:22.689Z,29.80
2018-08-28T14:48:50.902Z,29.80
2018-08-28T14:51:19.074Z,29.70
2018-08-28T14:53:47.267Z,29.70
2018-08-28T14:56:15.428Z,29.20
2018-08-28T14:58:43.615Z,29.00
2018-08-28T15:01:11.836Z,28.90
2018-08-28T15:03:40.101Z,28.70
2018-08-28T15:06:08.335Z,28.60
2018-08-28T15:08:36.535Z,28.50
2018-08-28T15:11:04.703Z,28.30
2018-08-28T15:13:32.878Z,28.30
2018-08-28T15:16:01.055Z,28.30
2018-08-28T15:18:29.243Z,28.30
2018-08-28T15:20:57.720Z,28.30
2018-08-28T15:23:26.279Z,28.30
2018-08-28T15:25:54.510Z,28.30
2018-08-28T15:28:22.800Z,28.30
2018-08-28T15:30:51.044Z,28.20
2018-08-28T15:33:19.240Z,28.20
2018-08-28T15:35:47.471Z,28.10
2018-08-28T15:38:15.664Z,28.00
2018-08-28T15:40:43.958Z,28.00
2018-08-28T15:43:12.125Z,27.90
2018-08-28T15:45:40.302Z,27.80
2018-08-28T15:48:08.995Z,27.70
2018-08-28T15:50:37.176Z,27.60
2018-08-28T15:53:05.603Z,27.50
2018-08-28T15:55:33.808Z,27.50
2018-08-28T15:58:02.387Z,27.40
2018-08-28T16:00:30.559Z,27.40
2018-08-28T16:02:58.739Z,27.40
2018-08-28T16:05:26.912Z,27.40
2018-08-28T16:07:55.147Z,27.40
2018-08-28T16:10:23.317Z,27.40
2018-08-28T16:12:51.511Z,27.40
2018-08-28T16:15:19.686Z,27.50
2018-08-28T16:17:47.858Z,27.40
2018-08-28T16:20:16.042Z,27.40
2018-08-28T16:22:49.652Z,27.40
2018-08-28T16:25:17.877Z,27.40
2018-08-28T16:27:46.096Z,27.30
2018-08-28T16:30:14.308Z,27.40
2018-08-28T16:32:42.495Z,27.30
2018-08-28T16:35:10.683Z,27.30
2018-08-28T16:37:38.856Z,27.20
2018-08-28T16:40:07.106Z,27.20
2018-08-28T16:42:35.306Z,27.10
2018-08-28T16:45:03.523Z,27.00
2018-08-28T16:47:31.875Z,27.00
2018-08-28T16:50:00.099Z,26.90
2018-08-28T16:52:28.274Z,26.90
2018-08-28T16:54:56.487Z,26.80
2018-08-28T16:57:24.676Z,26.70
2018-08-28T16:59:52.878Z,26.60
2018-08-28T17:02:21.062Z,26.60
2018-08-28T17:04:49.238Z,26.50
2018-08-28T17:07:17.704Z,26.50
2018-08-28T17:09:45.867Z,26.40
2018-08-28T17:12:14.096Z,26.30
2018-08-28T17:14:42.295Z,26.20
2018-08-28T17:17:10.423Z,26.10
2018-08-28T17:19:38.642Z,26.10
2018-08-28T17:22:06.902Z,26.00
2018-08-28T17:24:35.185Z,25.90
2018-08-28T17:27:03.422Z,25.80
2018-08-28T17:29:31.626Z,25.70
2018-08-28T17:31:59.862Z,25.60
2018-08-28T17:34:28.059Z,25.40
2018-08-28T17:36:56.329Z,25.30
2018-08-28T17:39:24.488Z,25.20
2018-08-28T17:41:52.709Z,25.10
2018-08-28T17:44:20.944Z,25.00
2018-08-28T17:46:49.154Z,24.90
2018-08-28T17:49:17.424Z,24.80
2018-08-28T17:51:46.107Z,24.70
2018-08-28T17:54:14.314Z,24.60
2018-08-28T17:56:42.511Z,24.50
2018-08-28T17:59:10.715Z,24.30
2018-08-28T18:01:39.414Z,24.20
2018-08-28T18:04:08.294Z,24.20
2018-08-28T18:06:36.494Z,24.10
2018-08-28T18:09:05.720Z,23.90
2018-08-28T18:11:34.058Z,23.90
2018-08-28T18:14:02.260Z,23.80
2018-08-28T18:16:30.551Z,23.70
2018-08-28T18:18:59.175Z,23.60
2018-08-28T18:21:27.355Z,23.50
2018-08-28T18:23:55.562Z,23.50
2018-08-28T18:26:23.769Z,23.40
2018-08-28T18:28:52.067Z,23.30
2018-08-28T18:31:20.251Z,23.30
2018-08-28T18:33:48.453Z,23.10
2018-08-28T18:36:16.667Z,23.00
2018-08-28T18:38:44.864Z,23.00
2018-08-28T18:41:13.052Z,22.90
2018-08-28T18:43:41.227Z,22.90
2018-08-28T18:46:09.403Z,22.70
2018-08-28T18:48:37.580Z,22.70
2018-08-28T18:51:05.759Z,22.60
2018-08-28T18:53:33.936Z,22.60
2018-08-28T18:56:02.296Z,22.50
2018-08-28T18:58:30.418Z,22.40
2018-08-28T19:00:58.831Z,22.30
2018-08-28T19:03:27.011Z,22.20
2018-08-28T19:05:55.187Z,22.10
2018-08-28T19:08:23.354Z,22.10
2018-08-28T19:10:51.535Z,22.10
2018-08-28T19:13:19.715Z,22.00
2018-08-28T19:15:47.896Z,21.90
2018-08-28T19:18:16.072Z,21.80
2018-08-28T19:20:44.326Z,21.80
2018-08-28T19:23:12.451Z,21.80
2018-08-28T19:25:40.664Z,21.70
2018-08-28T19:28:08.896Z,21.60
2018-08-28T19:30:37.088Z,21.60
2018-08-28T19:33:05.294Z,21.50
2018-08-28T19:35:33.475Z,21.50
2018-08-28T19:38:01.656Z,21.40
2018-08-28T19:40:29.857Z,21.30
2018-08-28T19:42:58.060Z,21.30
2018-08-28T19:45:26.242Z,21.20
2018-08-28T19:47:54.427Z,21.20
2018-08-28T19:50:22.606Z,21.10
2018-08-28T19:52:51.074Z,21.00
2018-08-28T19:55:19.267Z,21.00
2018-08-28T19:57:47.454Z,21.00
2018-08-28T20:00:15.633Z,21.00
2018-08-28T20:02:43.819Z,20.90
2018-08-28T20:05:12.003Z,20.80
2018-08-28T20:07:40.450Z,20.70
2018-08-28T20:10:08.647Z,20.70
2018-08-28T20:12:36.872Z,20.70
2018-08-28T20:15:05.098Z,20.60
2018-08-28T20:17:33.311Z,20.60
2018-08-28T20:20:01.543Z,20.60
2018-08-28T20:22:29.731Z,20.50
2018-08-28T20:24:57.915Z,20.40
2018-08-28T20:27:26.102Z,20.40
2018-08-28T20:29:54.325Z,20.30
2018-08-28T20:32:22.752Z,20.30
2018-08-28T20:34:50.923Z,20.30
2018-08-28T20:37:19.111Z,20.20
2018-08-28T20:39:47.279Z,20.20
2018-08-28T20:42:15.459Z,20.20
2018-08-28T20:44:43.623Z,20.10
2018-08-28T20:47:11.806Z,20.10
2018-08-28T20:49:40.219Z,20.00
2018-08-28T20:52:08.399Z,19.90
2018-08-28T20:54:36.592Z,19.90
2018-08-28T20:57:04.804Z,19.90
2018-08-28T20:59:32.996Z,19.80
2018-08-28T21:02:01.163Z,19.80
2018-08-28T21:04:29.366Z,19.80
2018-08-28T21:06:57.683Z,19.80
2018-08-28T21:09:25.707Z,19.80
2018-08-28T21:11:53.892Z,19.70
2018-08-28T21:14:22.063Z,19.70
2018-08-28T21:16:50.451Z,19.70
2018-08-28T21:19:18.858Z,19.60
2018-08-28T21:21:47.082Z,19.60
2018-08-28T21:24:15.471Z,19.50
2018-08-28T21:26:43.647Z,19.40
2018-08-28T21:29:11.886Z,19.40
2018-08-28T21:31:40.067Z,19.30
2018-08-28T21:34:08.241Z,19.30
2018-08-28T21:36:36.452Z,19.30
2018-08-28T21:39:05.452Z,19.30
2018-08-28T21:41:33.848Z,19.30
2018-08-28T21:44:02.041Z,19.20
2018-08-28T21:46:31.106Z,19.20
2018-08-28T21:48:59.290Z,19.10
2018-08-28T21:51:27.459Z,19.10
2018-08-28T21:53:55.693Z,19.10
2018-08-28T21:56:23.814Z,19.00
2018-08-28T21:58:51.999Z,19.00
2018-08-28T22:01:20.176Z,18.90
2018-08-28T22:03:48.359Z,18.80
2018-08-28T22:06:21.923Z,18.80
2018-08-28T22:08:50.122Z,18.70
2018-08-28T22:11:18.291Z,18.70
2018-08-28T22:13:46.500Z,18.70
2018-08-28T22:16:14.705Z,18.60
2018-08-28T22:18:42.899Z,18.60
2018-08-28T22:21:11.059Z,18.60
2018-08-28T22:23:39.225Z,18.50
2018-08-28T22:26:07.618Z,18.50
2018-08-28T22:28:35.790Z,18.50
2018-08-28T22:31:03.951Z,18.40
2018-08-28T22:33:32.134Z,18.40
2018-08-28T22:36:00.343Z,18.40
2018-08-28T22:38:28.499Z,18.40
2018-08-28T22:40:56.654Z,18.30
2018-08-28T22:43:24.810Z,18.30
2018-08-28T22:45:52.970Z,18.30
2018-08-28T22:48:21.131Z,18.30
2018-08-28T22:50:49.286Z,18.20
2018-08-28T22:53:17.474Z,18.10
2018-08-28T22:55:45.664Z,18.10
2018-08-28T22:58:13.836Z,18.10
2018-08-28T23:00:42.011Z,18.10
2018-08-28T23:03:10.167Z,18.00
2018-08-28T23:05:38.599Z,18.10
2018-08-28T23:08:06.758Z,18.00
2018-08-28T23:10:34.931Z,18.00
2018-08-28T23:13:03.083Z,17.90
2018-08-28T23:15:31.255Z,17.90
2018-08-28T23:17:59.398Z,17.90
2018-08-28T23:20:27.567Z,17.80
2018-08-28T23:22:55.719Z,17.80
2018-08-28T23:25:23.883Z,17.70
2018-08-28T23:27:52.047Z,17.70
2018-08-28T23:30:20.498Z,17.80
2018-08-28T23:32:48.667Z,17.70
2018-08-28T23:35:16.863Z,17.70
2018-08-28T23:37:45.036Z,17.70
2018-08-28T23:40:13.211Z,17.60
2018-08-28T23:42:41.367Z,17.60
2018-08-28T23:45:09.536Z,17.50
2018-08-28T23:47:38.002Z,17.50
2018-08-28T23:50:06.171Z,17.60
2018-08-28T23:52:34.332Z,17.60
2018-08-28T23:55:02.494Z,17.60
2018-08-28T23:57:30.652Z,17.60
2018-08-28T23:59:58.815Z,17.60
